sensor_id;sensor_type;location;lat;lon;timestamp;pressure;altitude;pressure_sealevel;temperature;humidity
84043;BME280;74129;52.540;13.416;2024-02-23T00:01:54;97822.56;;;10.74;75.23
84043;BME280;74129;52.540;13.416;2024-02-23T00:04:20;97819.50;;;10.74;75.12
84043;BME280;74129;52.540;13.416;2024-02-23T00:06:46;97814.36;;;10.72;75.02
84043;BME280;74129;52.540;13.416;2024-02-23T00:09:13;97814.70;;;10.73;74.87
84043;BME280;74129;52.540;13.416;2024-02-23T00:11:40;97819.73;;;10.74;74.80
84043;BME280;74129;52.540;13.416;2024-02-23T00:14:11;97820.13;;;10.74;74.82
84043;BME280;74129;52.540;13.416;2024-02-23T00:16:39;97818.57;;;10.71;74.81
84043;BME280;74129;52.540;13.416;2024-02-23T00:19:09;97822.79;;;10.72;74.87
84043;BME280;74129;52.540;13.416;2024-02-23T00:21:38;97822.77;;;10.73;74.64
84043;BME280;74129;52.540;13.416;2024-02-23T00:24:06;97812.86;;;10.73;74.72
84043;BME280;74129;52.540;13.416;2024-02-23T00:26:32;97815.06;;;10.75;74.76
84043;BME280;74129;52.540;13.416;2024-02-23T00:28:59;97808.74;;;10.76;74.82
84043;BME280;74129;52.540;13.416;2024-02-23T00:31:25;97809.42;;;10.78;74.67
84043;BME280;74129;52.540;13.416;2024-02-23T00:33:51;97803.06;;;10.78;74.58
84043;BME280;74129;52.540;13.416;2024-02-23T00:36:18;97798.66;;;10.79;74.61
84043;BME280;74129;52.540;13.416;2024-02-23T00:38:45;97801.60;;;10.80;74.47
84043;BME280;74129;52.540;13.416;2024-02-23T00:41:11;97814.32;;;10.79;74.17
84043;BME280;74129;52.540;13.416;2024-02-23T00:43:38;97813.07;;;10.76;74.28
84043;BME280;74129;52.540;13.416;2024-02-23T00:46:07;97813.70;;;10.77;74.23
84043;BME280;74129;52.540;13.416;2024-02-23T00:48:34;97808.45;;;10.76;74.20
84043;BME280;74129;52.540;13.416;2024-02-23T00:51:03;97817.98;;;10.74;74.11
84043;BME280;74129;52.540;13.416;2024-02-23T00:53:30;97820.39;;;10.73;74.05
84043;BME280;74129;52.540;13.416;2024-02-23T00:55:57;97814.70;;;10.73;74.03
84043;BME280;74129;52.540;13.416;2024-02-23T00:58:23;97810.13;;;10.71;74.02
84043;BME280;74129;52.540;13.416;2024-02-23T01:00:50;97816.96;;;10.71;73.89
84043;BME280;74129;52.540;13.416;2024-02-23T01:03:16;97823.11;;;10.72;73.85
84043;BME280;74129;52.540;13.416;2024-02-23T01:05:42;97836.89;;;10.73;73.93
84043;BME280;74129;52.540;13.416;2024-02-23T01:08:09;97851.99;;;10.72;73.73
84043;BME280;74129;52.540;13.416;2024-02-23T01:10:35;97858.41;;;10.71;73.80
84043;BME280;74129;52.540;13.416;2024-02-23T01:13:01;97848.67;;;10.72;73.57
84043;BME280;74129;52.540;13.416;2024-02-23T01:15:28;97852.56;;;10.73;73.53
84043;BME280;74129;52.540;13.416;2024-02-23T01:17:54;97854.73;;;10.73;73.44
84043;BME280;74129;52.540;13.416;2024-02-23T01:20:22;97864.92;;;10.75;73.32
84043;BME280;74129;52.540;13.416;2024-02-23T01:22:48;97875.61;;;10.75;73.07
84043;BME280;74129;52.540;13.416;2024-02-23T01:25:15;97873.84;;;10.75;73.11
84043;BME280;74129;52.540;13.416;2024-02-23T01:27:42;97878.20;;;10.74;72.86
84043;BME280;74129;52.540;13.416;2024-02-23T01:30:08;97891.33;;;10.74;72.86
84043;BME280;74129;52.540;13.416;2024-02-23T01:32:35;97888.57;;;10.75;72.51
84043;BME280;74129;52.540;13.416;2024-02-23T01:35:07;97891.28;;;10.77;72.23
84043;BME280;74129;52.540;13.416;2024-02-23T01:37:36;97895.91;;;10.79;72.18
84043;BME280;74129;52.540;13.416;2024-02-23T01:40:03;97904.64;;;10.81;71.84
84043;BME280;74129;52.540;13.416;2024-02-23T01:42:30;97906.13;;;10.83;71.63
84043;BME280;74129;52.540;13.416;2024-02-23T01:44:56;97919.04;;;10.83;71.50
84043;BME280;74129;52.540;13.416;2024-02-23T01:47:24;97925.95;;;10.83;71.13
84043;BME280;74129;52.540;13.416;2024-02-23T01:49:51;97925.17;;;10.83;70.94
84043;BME280;74129;52.540;13.416;2024-02-23T01:52:18;97932.89;;;10.83;70.95
84043;BME280;74129;52.540;13.416;2024-02-23T01:54:44;97933.20;;;10.82;70.68
84043;BME280;74129;52.540;13.416;2024-02-23T01:57:11;97952.81;;;10.86;70.36
84043;BME280;74129;52.540;13.416;2024-02-23T01:59:38;97958.21;;;10.87;70.17
84043;BME280;74129;52.540;13.416;2024-02-23T02:02:05;97968.05;;;10.89;69.18
84043;BME280;74129;52.540;13.416;2024-02-23T02:04:32;97986.05;;;10.89;67.87
84043;BME280;74129;52.540;13.416;2024-02-23T02:06:59;97983.13;;;10.91;67.13
84043;BME280;74129;52.540;13.416;2024-02-23T02:09:25;98006.71;;;10.89;66.79
84043;BME280;74129;52.540;13.416;2024-02-23T02:11:52;98020.63;;;10.89;66.34
84043;BME280;74129;52.540;13.416;2024-02-23T02:14:18;98025.13;;;10.86;65.28
84043;BME280;74129;52.540;13.416;2024-02-23T02:16:45;98043.98;;;10.85;65.43
84043;BME280;74129;52.540;13.416;2024-02-23T02:19:12;98044.29;;;10.84;63.16
84043;BME280;74129;52.540;13.416;2024-02-23T02:21:39;98051.84;;;10.82;63.14
84043;BME280;74129;52.540;13.416;2024-02-23T02:24:06;98056.04;;;10.78;63.57
84043;BME280;74129;52.540;13.416;2024-02-23T02:26:34;98058.96;;;10.75;62.41
84043;BME280;74129;52.540;13.416;2024-02-23T02:29:01;98067.57;;;10.71;62.56
84043;BME280;74129;52.540;13.416;2024-02-23T02:31:28;98091.63;;;10.70;62.09
84043;BME280;74129;52.540;13.416;2024-02-23T02:33:54;98098.39;;;10.68;62.34
84043;BME280;74129;52.540;13.416;2024-02-23T02:36:20;98108.64;;;10.66;61.29
84043;BME280;74129;52.540;13.416;2024-02-23T02:38:47;98130.11;;;10.63;61.33
84043;BME280;74129;52.540;13.416;2024-02-23T02:41:14;98115.73;;;10.58;59.74
84043;BME280;74129;52.540;13.416;2024-02-23T02:43:42;98124.55;;;10.50;59.97
84043;BME280;74129;52.540;13.416;2024-02-23T02:46:08;98132.27;;;10.45;59.39
84043;BME280;74129;52.540;13.416;2024-02-23T02:48:35;98142.10;;;10.38;58.80
84043;BME280;74129;52.540;13.416;2024-02-23T02:51:01;98143.23;;;10.32;57.77
84043;BME280;74129;52.540;13.416;2024-02-23T02:53:27;98147.84;;;10.28;57.07
84043;BME280;74129;52.540;13.416;2024-02-23T02:55:54;98152.37;;;10.22;56.50
84043;BME280;74129;52.540;13.416;2024-02-23T02:58:20;98146.79;;;10.15;56.99
84043;BME280;74129;52.540;13.416;2024-02-23T03:00:46;98163.42;;;10.10;56.62
84043;BME280;74129;52.540;13.416;2024-02-23T03:03:13;98159.08;;;10.06;57.24
84043;BME280;74129;52.540;13.416;2024-02-23T03:05:39;98163.56;;;10.02;56.74
84043;BME280;74129;52.540;13.416;2024-02-23T03:08:06;98169.04;;;9.98;56.56
84043;BME280;74129;52.540;13.416;2024-02-23T03:10:32;98183.71;;;9.95;56.74
84043;BME280;74129;52.540;13.416;2024-02-23T03:12:59;98190.05;;;9.91;57.38
84043;BME280;74129;52.540;13.416;2024-02-23T03:15:25;98201.25;;;9.88;57.32
84043;BME280;74129;52.540;13.416;2024-02-23T03:17:51;98206.28;;;9.84;57.06
84043;BME280;74129;52.540;13.416;2024-02-23T03:20:18;98218.23;;;9.79;56.45
84043;BME280;74129;52.540;13.416;2024-02-23T03:22:44;98213.02;;;9.74;56.97
84043;BME280;74129;52.540;13.416;2024-02-23T03:25:11;98225.70;;;9.70;56.86
84043;BME280;74129;52.540;13.416;2024-02-23T03:27:37;98228.09;;;9.66;56.57
84043;BME280;74129;52.540;13.416;2024-02-23T03:30:04;98229.77;;;9.64;56.14
84043;BME280;74129;52.540;13.416;2024-02-23T03:32:31;98233.29;;;9.61;55.95
84043;BME280;74129;52.540;13.416;2024-02-23T03:35:03;98231.08;;;9.57;56.90
84043;BME280;74129;52.540;13.416;2024-02-23T03:37:30;98236.79;;;9.51;55.92
84043;BME280;74129;52.540;13.416;2024-02-23T03:39:56;98248.49;;;9.51;55.60
84043;BME280;74129;52.540;13.416;2024-02-23T03:42:23;98253.56;;;9.50;55.37
84043;BME280;74129;52.540;13.416;2024-02-23T03:44:49;98245.88;;;9.48;55.48
84043;BME280;74129;52.540;13.416;2024-02-23T03:47:16;98261.35;;;9.45;55.32
84043;BME280;74129;52.540;13.416;2024-02-23T03:49:43;98272.11;;;9.44;54.63
84043;BME280;74129;52.540;13.416;2024-02-23T03:52:09;98262.92;;;9.39;55.13
84043;BME280;74129;52.540;13.416;2024-02-23T03:54:35;98277.40;;;9.37;54.59
84043;BME280;74129;52.540;13.416;2024-02-23T03:57:02;98272.94;;;9.34;55.03
84043;BME280;74129;52.540;13.416;2024-02-23T03:59:29;98289.00;;;9.32;55.38
84043;BME280;74129;52.540;13.416;2024-02-23T04:01:56;98291.41;;;9.30;55.54
84043;BME280;74129;52.540;13.416;2024-02-23T04:04:22;98303.32;;;9.28;55.62
84043;BME280;74129;52.540;13.416;2024-02-23T04:06:48;98310.38;;;9.26;55.84
84043;BME280;74129;52.540;13.416;2024-02-23T04:09:15;98307.64;;;9.24;55.54
84043;BME280;74129;52.540;13.416;2024-02-23T04:11:41;98318.39;;;9.23;55.04
84043;BME280;74129;52.540;13.416;2024-02-23T04:14:07;98317.76;;;9.23;55.46
84043;BME280;74129;52.540;13.416;2024-02-23T04:16:34;98323.21;;;9.21;55.66
84043;BME280;74129;52.540;13.416;2024-02-23T04:19:00;98333.15;;;9.21;55.57
84043;BME280;74129;52.540;13.416;2024-02-23T04:21:27;98340.20;;;9.22;55.14
84043;BME280;74129;52.540;13.416;2024-02-23T04:23:53;98349.44;;;9.22;55.97
84043;BME280;74129;52.540;13.416;2024-02-23T04:26:19;98359.51;;;9.19;56.42
84043;BME280;74129;52.540;13.416;2024-02-23T04:28:46;98364.10;;;9.18;56.08
84043;BME280;74129;52.540;13.416;2024-02-23T04:31:12;98367.62;;;9.19;56.53
84043;BME280;74129;52.540;13.416;2024-02-23T04:33:38;98378.59;;;9.17;56.27
84043;BME280;74129;52.540;13.416;2024-02-23T04:36:05;98374.85;;;9.14;56.42
84043;BME280;74129;52.540;13.416;2024-02-23T04:38:33;98382.37;;;9.08;55.66
84043;BME280;74129;52.540;13.416;2024-02-23T04:41:03;98395.18;;;9.06;56.12
84043;BME280;74129;52.540;13.416;2024-02-23T04:43:30;98415.06;;;9.01;55.36
84043;BME280;74129;52.540;13.416;2024-02-23T04:45:57;98418.23;;;8.98;54.27
84043;BME280;74129;52.540;13.416;2024-02-23T04:48:23;98408.77;;;8.97;54.32
84043;BME280;74129;52.540;13.416;2024-02-23T04:50:49;98419.31;;;8.95;54.31
84043;BME280;74129;52.540;13.416;2024-02-23T04:53:16;98436.69;;;8.94;54.51
84043;BME280;74129;52.540;13.416;2024-02-23T04:55:42;98441.04;;;8.93;54.53
84043;BME280;74129;52.540;13.416;2024-02-23T04:58:08;98447.13;;;8.92;54.32
84043;BME280;74129;52.540;13.416;2024-02-23T05:00:35;98451.64;;;8.92;54.19
84043;BME280;74129;52.540;13.416;2024-02-23T05:03:01;98454.59;;;8.92;54.21
84043;BME280;74129;52.540;13.416;2024-02-23T05:05:30;98468.80;;;8.89;54.32
84043;BME280;74129;52.540;13.416;2024-02-23T05:07:58;98477.45;;;8.88;54.59
84043;BME280;74129;52.540;13.416;2024-02-23T05:10:24;98484.50;;;8.87;54.65
84043;BME280;74129;52.540;13.416;2024-02-23T05:12:51;98493.19;;;8.86;54.48
84043;BME280;74129;52.540;13.416;2024-02-23T05:15:17;98503.38;;;8.86;54.61
84043;BME280;74129;52.540;13.416;2024-02-23T05:17:43;98519.55;;;8.87;53.84
84043;BME280;74129;52.540;13.416;2024-02-23T05:20:10;98516.56;;;8.86;53.66
84043;BME280;74129;52.540;13.416;2024-02-23T05:22:38;98520.87;;;8.83;53.45
84043;BME280;74129;52.540;13.416;2024-02-23T05:25:05;98521.69;;;8.78;53.38
84043;BME280;74129;52.540;13.416;2024-02-23T05:27:32;98530.48;;;8.71;53.16
84043;BME280;74129;52.540;13.416;2024-02-23T05:29:59;98529.90;;;8.64;52.92
84043;BME280;74129;52.540;13.416;2024-02-23T05:32:25;98529.91;;;8.56;52.97
84043;BME280;74129;52.540;13.416;2024-02-23T05:34:52;98547.08;;;8.52;52.90
84043;BME280;74129;52.540;13.416;2024-02-23T05:37:20;98551.71;;;8.46;52.64
84043;BME280;74129;52.540;13.416;2024-02-23T05:39:46;98554.57;;;8.40;52.76
84043;BME280;74129;52.540;13.416;2024-02-23T05:42:13;98557.90;;;8.35;52.72
84043;BME280;74129;52.540;13.416;2024-02-23T05:44:39;98594.98;;;8.31;52.74
84043;BME280;74129;52.540;13.416;2024-02-23T05:47:06;98589.51;;;8.27;53.27
84043;BME280;74129;52.540;13.416;2024-02-23T05:49:32;98597.17;;;8.22;53.41
84043;BME280;74129;52.540;13.416;2024-02-23T05:51:58;98605.04;;;8.20;54.09
84043;BME280;74129;52.540;13.416;2024-02-23T05:54:25;98607.13;;;8.15;54.14
84043;BME280;74129;52.540;13.416;2024-02-23T05:56:51;98621.17;;;8.09;54.10
84043;BME280;74129;52.540;13.416;2024-02-23T05:59:17;98616.11;;;8.02;54.06
84043;BME280;74129;52.540;13.416;2024-02-23T06:01:44;98605.77;;;7.99;54.18
84043;BME280;74129;52.540;13.416;2024-02-23T06:04:10;98608.60;;;7.95;54.53
84043;BME280;74129;52.540;13.416;2024-02-23T06:06:36;98620.19;;;7.92;53.83
84043;BME280;74129;52.540;13.416;2024-02-23T06:09:03;98634.70;;;7.88;54.74
84043;BME280;74129;52.540;13.416;2024-02-23T06:11:31;98643.64;;;7.85;54.79
84043;BME280;74129;52.540;13.416;2024-02-23T06:13:58;98649.52;;;7.81;53.61
84043;BME280;74129;52.540;13.416;2024-02-23T06:16:24;98662.05;;;7.78;54.01
84043;BME280;74129;52.540;13.416;2024-02-23T06:18:50;98665.68;;;7.74;54.54
84043;BME280;74129;52.540;13.416;2024-02-23T06:21:17;98678.35;;;7.71;54.79
84043;BME280;74129;52.540;13.416;2024-02-23T06:23:44;98687.14;;;7.69;54.82
84043;BME280;74129;52.540;13.416;2024-02-23T06:26:11;98701.19;;;7.67;54.65
84043;BME280;74129;52.540;13.416;2024-02-23T06:28:38;98716.72;;;7.65;54.76
84043;BME280;74129;52.540;13.416;2024-02-23T06:31:08;98708.60;;;7.63;54.31
84043;BME280;74129;52.540;13.416;2024-02-23T06:33:35;98708.93;;;7.61;54.74
84043;BME280;74129;52.540;13.416;2024-02-23T06:36:02;98714.55;;;7.61;54.61
84043;BME280;74129;52.540;13.416;2024-02-23T06:38:29;98722.52;;;7.61;54.96
84043;BME280;74129;52.540;13.416;2024-02-23T06:40:56;98721.17;;;7.62;55.12
84043;BME280;74129;52.540;13.416;2024-02-23T06:43:22;98730.48;;;7.62;54.71
84043;BME280;74129;52.540;13.416;2024-02-23T06:45:49;98736.92;;;7.62;54.90
84043;BME280;74129;52.540;13.416;2024-02-23T06:48:15;98736.80;;;7.63;55.53
84043;BME280;74129;52.540;13.416;2024-02-23T06:50:41;98751.39;;;7.66;55.30
84043;BME280;74129;52.540;13.416;2024-02-23T06:53:08;98744.16;;;7.72;55.21
84043;BME280;74129;52.540;13.416;2024-02-23T06:55:35;98747.17;;;7.76;54.71
84043;BME280;74129;52.540;13.416;2024-02-23T06:58:02;98741.51;;;7.77;54.64
84043;BME280;74129;52.540;13.416;2024-02-23T07:00:30;98761.23;;;7.80;54.68
84043;BME280;74129;52.540;13.416;2024-02-23T07:02:57;98778.27;;;7.82;54.91
84043;BME280;74129;52.540;13.416;2024-02-23T07:05:29;98776.77;;;7.83;54.86
84043;BME280;74129;52.540;13.416;2024-02-23T07:07:56;98771.65;;;7.88;54.98
84043;BME280;74129;52.540;13.416;2024-02-23T07:10:23;98767.88;;;7.90;54.56
84043;BME280;74129;52.540;13.416;2024-02-23T07:12:51;98774.72;;;7.92;54.69
84043;BME280;74129;52.540;13.416;2024-02-23T07:15:20;98781.62;;;7.92;54.57
84043;BME280;74129;52.540;13.416;2024-02-23T07:17:46;98790.88;;;7.91;54.29
84043;BME280;74129;52.540;13.416;2024-02-23T07:20:13;98794.60;;;7.90;54.33
84043;BME280;74129;52.540;13.416;2024-02-23T07:22:45;98790.92;;;7.88;54.50
84043;BME280;74129;52.540;13.416;2024-02-23T07:25:19;98793.27;;;7.88;54.08
84043;BME280;74129;52.540;13.416;2024-02-23T07:27:49;98794.16;;;7.90;54.18
84043;BME280;74129;52.540;13.416;2024-02-23T07:30:15;98801.34;;;7.90;54.22
84043;BME280;74129;52.540;13.416;2024-02-23T07:32:45;98815.30;;;7.87;54.08
84043;BME280;74129;52.540;13.416;2024-02-23T07:35:12;98812.52;;;7.85;54.30
84043;BME280;74129;52.540;13.416;2024-02-23T07:37:39;98821.07;;;7.88;54.35
84043;BME280;74129;52.540;13.416;2024-02-23T07:40:06;98818.41;;;7.91;54.72
84043;BME280;74129;52.540;13.416;2024-02-23T07:42:32;98824.59;;;7.95;54.49
84043;BME280;74129;52.540;13.416;2024-02-23T07:44:58;98827.78;;;7.97;54.33
84043;BME280;74129;52.540;13.416;2024-02-23T07:47:25;98823.38;;;7.97;54.71
84043;BME280;74129;52.540;13.416;2024-02-23T07:49:53;98826.86;;;7.98;54.58
84043;BME280;74129;52.540;13.416;2024-02-23T07:52:20;98824.58;;;7.97;53.91
84043;BME280;74129;52.540;13.416;2024-02-23T07:54:49;98832.98;;;7.95;53.90
84043;BME280;74129;52.540;13.416;2024-02-23T07:57:21;98836.48;;;7.94;54.80
84043;BME280;74129;52.540;13.416;2024-02-23T07:59:47;98850.05;;;7.97;55.07
84043;BME280;74129;52.540;13.416;2024-02-23T08:02:15;98853.61;;;8.01;55.08
84043;BME280;74129;52.540;13.416;2024-02-23T08:04:41;98859.81;;;8.08;55.13
84043;BME280;74129;52.540;13.416;2024-02-23T08:07:10;98867.21;;;8.19;55.29
84043;BME280;74129;52.540;13.416;2024-02-23T08:09:36;98870.70;;;8.33;54.66
84043;BME280;74129;52.540;13.416;2024-02-23T08:12:03;98863.72;;;8.46;54.66
84043;BME280;74129;52.540;13.416;2024-02-23T08:14:30;98870.52;;;8.64;54.83
84043;BME280;74129;52.540;13.416;2024-02-23T08:16:56;98883.43;;;8.75;54.06
84043;BME280;74129;52.540;13.416;2024-02-23T08:19:23;98882.70;;;8.84;53.77
84043;BME280;74129;52.540;13.416;2024-02-23T08:21:49;98885.36;;;8.95;54.08
84043;BME280;74129;52.540;13.416;2024-02-23T08:24:15;98883.56;;;9.06;54.17
84043;BME280;74129;52.540;13.416;2024-02-23T08:26:42;98889.63;;;9.15;53.76
84043;BME280;74129;52.540;13.416;2024-02-23T08:29:09;98901.27;;;9.20;53.49
84043;BME280;74129;52.540;13.416;2024-02-23T08:31:35;98907.20;;;9.22;53.39
84043;BME280;74129;52.540;13.416;2024-02-23T08:34:01;98910.73;;;9.22;53.37
84043;BME280;74129;52.540;13.416;2024-02-23T08:36:28;98918.21;;;9.21;53.55
84043;BME280;74129;52.540;13.416;2024-02-23T08:38:55;98916.27;;;9.21;53.17
84043;BME280;74129;52.540;13.416;2024-02-23T08:41:21;98913.93;;;9.15;52.77
84043;BME280;74129;52.540;13.416;2024-02-23T08:43:47;98908.80;;;9.09;52.56
84043;BME280;74129;52.540;13.416;2024-02-23T08:46:14;98908.95;;;9.04;52.59
84043;BME280;74129;52.540;13.416;2024-02-23T08:48:40;98905.17;;;9.03;52.86
84043;BME280;74129;52.540;13.416;2024-02-23T08:51:06;98902.10;;;9.04;52.64
84043;BME280;74129;52.540;13.416;2024-02-23T08:53:33;98909.22;;;9.05;53.01
84043;BME280;74129;52.540;13.416;2024-02-23T08:55:59;98916.73;;;9.05;52.39
84043;BME280;74129;52.540;13.416;2024-02-23T08:58:26;98920.77;;;9.03;52.33
84043;BME280;74129;52.540;13.416;2024-02-23T09:00:53;98923.98;;;9.03;51.69
84043;BME280;74129;52.540;13.416;2024-02-23T09:03:19;98932.38;;;9.00;51.54
84043;BME280;74129;52.540;13.416;2024-02-23T09:05:46;98939.83;;;9.01;51.84
84043;BME280;74129;52.540;13.416;2024-02-23T09:08:14;98938.05;;;9.02;51.39
84043;BME280;74129;52.540;13.416;2024-02-23T09:10:41;98933.10;;;9.04;51.41
84043;BME280;74129;52.540;13.416;2024-02-23T09:13:07;98937.39;;;9.09;51.38
84043;BME280;74129;52.540;13.416;2024-02-23T09:15:33;98937.33;;;9.18;51.66
84043;BME280;74129;52.540;13.416;2024-02-23T09:18:00;98936.89;;;9.28;51.79
84043;BME280;74129;52.540;13.416;2024-02-23T09:20:26;98940.09;;;9.35;51.25
84043;BME280;74129;52.540;13.416;2024-02-23T09:22:53;98944.69;;;9.45;51.20
84043;BME280;74129;52.540;13.416;2024-02-23T09:25:19;98950.23;;;9.52;50.43
84043;BME280;74129;52.540;13.416;2024-02-23T09:27:45;98956.65;;;9.62;49.72
84043;BME280;74129;52.540;13.416;2024-02-23T09:30:12;98958.10;;;9.68;49.86
84043;BME280;74129;52.540;13.416;2024-02-23T09:32:39;98953.28;;;9.73;49.45
84043;BME280;74129;52.540;13.416;2024-02-23T09:35:06;98955.10;;;9.78;49.60
84043;BME280;74129;52.540;13.416;2024-02-23T09:37:33;98961.60;;;9.85;48.35
84043;BME280;74129;52.540;13.416;2024-02-23T09:39:59;98960.69;;;9.85;48.46
84043;BME280;74129;52.540;13.416;2024-02-23T09:42:28;98963.66;;;9.80;48.16
84043;BME280;74129;52.540;13.416;2024-02-23T09:44:59;98968.11;;;9.76;47.73
84043;BME280;74129;52.540;13.416;2024-02-23T09:47:27;98986.38;;;9.75;47.24
84043;BME280;74129;52.540;13.416;2024-02-23T09:49:55;98980.27;;;9.72;47.75
84043;BME280;74129;52.540;13.416;2024-02-23T09:52:22;98976.79;;;9.70;47.63
84043;BME280;74129;52.540;13.416;2024-02-23T09:54:49;98988.06;;;9.70;47.40
84043;BME280;74129;52.540;13.416;2024-02-23T09:57:16;98997.59;;;9.74;47.08
84043;BME280;74129;52.540;13.416;2024-02-23T09:59:44;99006.50;;;9.77;46.99
84043;BME280;74129;52.540;13.416;2024-02-23T10:02:14;99008.09;;;9.83;46.96
84043;BME280;74129;52.540;13.416;2024-02-23T10:04:42;99008.48;;;9.90;47.35
84043;BME280;74129;52.540;13.416;2024-02-23T10:07:10;99007.40;;;9.98;46.93
84043;BME280;74129;52.540;13.416;2024-02-23T10:09:36;99008.20;;;9.98;46.74
84043;BME280;74129;52.540;13.416;2024-02-23T10:12:03;98993.00;;;10.07;47.10
84043;BME280;74129;52.540;13.416;2024-02-23T10:14:29;98994.89;;;10.17;46.91
84043;BME280;74129;52.540;13.416;2024-02-23T10:16:56;99004.23;;;10.22;46.91
84043;BME280;74129;52.540;13.416;2024-02-23T10:19:22;99023.35;;;10.19;47.18
84043;BME280;74129;52.540;13.416;2024-02-23T10:21:56;99026.61;;;10.12;47.55
84043;BME280;74129;52.540;13.416;2024-02-23T10:24:23;99026.36;;;10.10;47.92
84043;BME280;74129;52.540;13.416;2024-02-23T10:26:51;99013.77;;;10.12;48.25
84043;BME280;74129;52.540;13.416;2024-02-23T10:29:18;99013.63;;;10.18;48.43
84043;BME280;74129;52.540;13.416;2024-02-23T10:31:46;99020.84;;;10.25;48.77
84043;BME280;74129;52.540;13.416;2024-02-23T10:34:19;99019.17;;;10.28;48.59
84043;BME280;74129;52.540;13.416;2024-02-23T10:36:46;99014.77;;;10.29;48.57
84043;BME280;74129;52.540;13.416;2024-02-23T10:39:16;99009.70;;;10.35;48.51
84043;BME280;74129;52.540;13.416;2024-02-23T10:41:47;99014.21;;;10.43;48.15
84043;BME280;74129;52.540;13.416;2024-02-23T10:44:19;99014.74;;;10.50;47.38
84043;BME280;74129;52.540;13.416;2024-02-23T10:46:46;99020.86;;;10.47;46.73
84043;BME280;74129;52.540;13.416;2024-02-23T10:49:14;99016.53;;;10.42;47.26
84043;BME280;74129;52.540;13.416;2024-02-23T10:51:42;99022.06;;;10.42;46.72
84043;BME280;74129;52.540;13.416;2024-02-23T10:54:10;99023.21;;;10.38;46.08
84043;BME280;74129;52.540;13.416;2024-02-23T10:56:38;99028.45;;;10.36;46.09
84043;BME280;74129;52.540;13.416;2024-02-23T10:59:05;99026.30;;;10.43;46.54
84043;BME280;74129;52.540;13.416;2024-02-23T11:01:34;99023.96;;;10.51;46.54
84043;BME280;74129;52.540;13.416;2024-02-23T11:04:01;99023.77;;;10.58;46.45
84043;BME280;74129;52.540;13.416;2024-02-23T11:06:28;99036.00;;;10.59;45.90
84043;BME280;74129;52.540;13.416;2024-02-23T11:09:05;99026.51;;;10.61;45.77
84043;BME280;74129;52.540;13.416;2024-02-23T11:11:32;99021.30;;;10.66;45.79
84043;BME280;74129;52.540;13.416;2024-02-23T11:14:02;99028.48;;;10.71;45.93
84043;BME280;74129;52.540;13.416;2024-02-23T11:16:31;99039.82;;;10.69;45.71
84043;BME280;74129;52.540;13.416;2024-02-23T11:19:04;99035.23;;;10.64;45.71
84043;BME280;74129;52.540;13.416;2024-02-23T11:21:38;99031.48;;;10.66;45.88
84043;BME280;74129;52.540;13.416;2024-02-23T11:24:05;99029.75;;;10.73;46.01
84043;BME280;74129;52.540;13.416;2024-02-23T11:26:31;99027.48;;;10.83;46.63
84043;BME280;74129;52.540;13.416;2024-02-23T11:29:09;99036.21;;;10.96;46.41
84043;BME280;74129;52.540;13.416;2024-02-23T11:31:44;99038.77;;;11.06;45.95
84043;BME280;74129;52.540;13.416;2024-02-23T11:34:11;99043.40;;;11.15;45.64
84043;BME280;74129;52.540;13.416;2024-02-23T11:36:38;99045.20;;;11.17;45.39
84043;BME280;74129;52.540;13.416;2024-02-23T11:39:05;99044.29;;;11.14;45.48
84043;BME280;74129;52.540;13.416;2024-02-23T11:41:31;99037.60;;;11.12;44.98
84043;BME280;74129;52.540;13.416;2024-02-23T11:43:58;99038.23;;;11.09;44.67
84043;BME280;74129;52.540;13.416;2024-02-23T11:46:24;99042.29;;;11.05;44.56
84043;BME280;74129;52.540;13.416;2024-02-23T11:48:50;99042.46;;;11.01;44.75
84043;BME280;74129;52.540;13.416;2024-02-23T11:51:20;99044.38;;;11.00;44.46
84043;BME280;74129;52.540;13.416;2024-02-23T11:53:48;99056.80;;;11.00;44.70
84043;BME280;74129;52.540;13.416;2024-02-23T11:56:14;99051.93;;;10.95;44.40
84043;BME280;74129;52.540;13.416;2024-02-23T11:58:41;99047.00;;;10.91;44.65
84043;BME280;74129;52.540;13.416;2024-02-23T12:01:08;99048.98;;;10.90;44.48
84043;BME280;74129;52.540;13.416;2024-02-23T12:03:34;99051.20;;;10.90;45.23
84043;BME280;74129;52.540;13.416;2024-02-23T12:06:02;99053.64;;;10.93;45.07
84043;BME280;74129;52.540;13.416;2024-02-23T12:08:31;99054.13;;;10.96;44.57
84043;BME280;74129;52.540;13.416;2024-02-23T12:11:07;99058.98;;;10.96;44.70
84043;BME280;74129;52.540;13.416;2024-02-23T12:13:36;99067.40;;;10.97;44.73
84043;BME280;74129;52.540;13.416;2024-02-23T12:16:03;99066.75;;;10.97;44.40
84043;BME280;74129;52.540;13.416;2024-02-23T12:18:29;99064.00;;;10.98;44.34
84043;BME280;74129;52.540;13.416;2024-02-23T12:21:04;99063.83;;;10.97;45.01
84043;BME280;74129;52.540;13.416;2024-02-23T12:23:43;99062.92;;;11.04;44.76
84043;BME280;74129;52.540;13.416;2024-02-23T12:26:13;99070.77;;;11.08;44.66
84043;BME280;74129;52.540;13.416;2024-02-23T12:28:40;99068.23;;;11.08;44.44
84043;BME280;74129;52.540;13.416;2024-02-23T12:31:07;99072.61;;;11.07;44.32
84043;BME280;74129;52.540;13.416;2024-02-23T12:33:35;99071.34;;;11.02;44.42
84043;BME280;74129;52.540;13.416;2024-02-23T12:36:03;99075.09;;;11.00;44.28
84043;BME280;74129;52.540;13.416;2024-02-23T12:38:30;99077.70;;;10.99;44.36
84043;BME280;74129;52.540;13.416;2024-02-23T12:40:57;99093.28;;;10.96;43.94
84043;BME280;74129;52.540;13.416;2024-02-23T12:43:25;99095.03;;;10.91;44.16
84043;BME280;74129;52.540;13.416;2024-02-23T12:45:52;99097.38;;;10.89;44.07
84043;BME280;74129;52.540;13.416;2024-02-23T12:48:19;99101.02;;;10.87;43.51
84043;BME280;74129;52.540;13.416;2024-02-23T12:50:47;99098.19;;;10.86;43.80
84043;BME280;74129;52.540;13.416;2024-02-23T12:53:34;99102.01;;;10.89;44.27
84043;BME280;74129;52.540;13.416;2024-02-23T12:56:07;99104.23;;;10.95;44.38